createdAt,value
2023-01-19T00:01:30.110Z,2.44
2023-01-19T00:03:56.700Z,2.38
2023-01-19T00:06:25.327Z,2.33
2023-01-19T00:08:51.982Z,2.33
2023-01-19T00:11:19.433Z,2.32
2023-01-19T00:13:50.510Z,2.29
2023-01-19T00:16:18.733Z,2.30
2023-01-19T00:18:46.199Z,2.27
2023-01-19T00:21:14.975Z,2.24
2023-01-19T00:23:42.685Z,2.22
2023-01-19T00:26:10.702Z,2.19
2023-01-19T00:28:37.302Z,2.19
2023-01-19T00:31:03.924Z,2.18
2023-01-19T00:33:30.725Z,2.16
2023-01-19T00:35:59.602Z,2.16
2023-01-19T00:38:26.204Z,2.15
2023-01-19T00:40:52.826Z,2.17
2023-01-19T00:43:19.537Z,2.17
2023-01-19T00:45:46.326Z,2.20
2023-01-19T00:48:14.074Z,2.20
2023-01-19T00:50:40.666Z,2.22
2023-01-19T00:53:07.225Z,2.24
2023-01-19T00:55:33.960Z,2.25
2023-01-19T00:58:00.711Z,2.27
2023-01-19T01:00:27.435Z,2.27
2023-01-19T01:02:54.614Z,2.26
2023-01-19T01:05:22.082Z,2.27
2023-01-19T01:07:49.662Z,2.27
2023-01-19T01:10:26.411Z,2.27
2023-01-19T01:12:56.799Z,2.28
2023-01-19T01:15:39.957Z,2.22
2023-01-19T01:18:06.679Z,2.20
2023-01-19T01:20:34.797Z,2.19
2023-01-19T01:23:01.933Z,2.16
2023-01-19T01:25:31.123Z,2.17
2023-01-19T01:27:58.853Z,2.15
2023-01-19T01:30:25.437Z,2.13
2023-01-19T01:32:52.187Z,2.16
2023-01-19T01:35:18.947Z,2.14
2023-01-19T01:37:46.756Z,2.14
2023-01-19T01:40:16.403Z,2.13
2023-01-19T01:42:43.894Z,2.14
2023-01-19T01:45:30.733Z,2.15
2023-01-19T01:48:15.741Z,2.16
2023-01-19T01:51:08.311Z,2.18
2023-01-19T01:53:36.970Z,2.20
2023-01-19T01:56:10.007Z,2.21
2023-01-19T01:58:37.960Z,2.22
2023-01-19T02:01:25.740Z,2.23
2023-01-19T02:03:56.758Z,2.26
2023-01-19T02:06:24.185Z,2.26
2023-01-19T02:09:29.081Z,2.27
2023-01-19T02:12:14.475Z,2.27
2023-01-19T02:14:42.202Z,2.27
2023-01-19T02:17:08.811Z,2.26
2023-01-19T02:19:41.961Z,2.26
2023-01-19T02:22:24.337Z,2.28
2023-01-19T02:24:51.643Z,2.29
2023-01-19T02:27:19.151Z,2.28
2023-01-19T02:29:45.901Z,2.28
2023-01-19T02:32:12.926Z,2.27
2023-01-19T02:34:39.586Z,2.27
2023-01-19T02:37:11.492Z,2.28
2023-01-19T02:39:53.856Z,2.27
2023-01-19T02:42:44.530Z,2.29
2023-01-19T02:45:14.593Z,2.30
2023-01-19T02:47:46.039Z,2.31
2023-01-19T02:50:39.144Z,2.31
2023-01-19T02:53:24.352Z,2.32
2023-01-19T02:56:07.169Z,2.34
2023-01-19T02:58:55.486Z,2.35
2023-01-19T03:01:34.960Z,2.35
2023-01-19T03:04:22.998Z,2.35
2023-01-19T03:07:00.978Z,2.37
2023-01-19T03:09:50.989Z,2.38
2023-01-19T03:12:42.211Z,2.38
2023-01-19T03:15:22.316Z,2.39
2023-01-19T03:17:51.470Z,2.40
2023-01-19T03:20:22.894Z,2.41
2023-01-19T03:22:54.162Z,2.41
2023-01-19T03:25:23.980Z,2.43
2023-01-19T03:27:54.230Z,2.43
2023-01-19T03:30:27.303Z,2.44
2023-01-19T03:33:05.153Z,2.45
2023-01-19T03:35:35.038Z,2.45
2023-01-19T03:38:06.660Z,2.45
2023-01-19T03:40:34.525Z,2.45
2023-01-19T03:43:03.413Z,2.47
2023-01-19T03:45:33.653Z,2.47
2023-01-19T03:48:00.267Z,2.45
2023-01-19T03:50:30.950Z,2.43
2023-01-19T03:53:12.529Z,2.40
2023-01-19T03:55:42.302Z,2.40
2023-01-19T03:58:09.161Z,2.36
2023-01-19T04:00:36.627Z,2.33
2023-01-19T04:03:04.731Z,2.30
2023-01-19T04:05:32.692Z,2.24
2023-01-19T04:07:59.327Z,2.18
2023-01-19T04:10:26.111Z,2.15
2023-01-19T04:12:58.376Z,2.11
2023-01-19T04:15:25.838Z,2.09
2023-01-19T04:17:52.518Z,2.03
2023-01-19T04:20:19.346Z,2.00
2023-01-19T04:22:45.913Z,1.99
2023-01-19T04:25:12.733Z,2.00
2023-01-19T04:27:39.415Z,2.00
2023-01-19T04:30:06.799Z,1.99
2023-01-19T04:32:33.535Z,2.01
2023-01-19T04:35:01.150Z,2.02
2023-01-19T04:37:27.989Z,2.01
2023-01-19T04:39:54.587Z,2.01
2023-01-19T04:42:21.717Z,2.01
2023-01-19T04:44:48.596Z,2.03
2023-01-19T04:47:15.533Z,2.04
2023-01-19T04:49:42.213Z,2.04
2023-01-19T04:52:08.928Z,2.06
2023-01-19T04:54:35.577Z,2.08
2023-01-19T04:57:02.185Z,2.08
2023-01-19T04:59:28.821Z,2.10
2023-01-19T05:01:56.629Z,2.10
2023-01-19T05:04:25.779Z,2.10
2023-01-19T05:09:41.731Z,2.10
2023-01-19T05:12:08.702Z,2.10
2023-01-19T05:14:35.299Z,2.10
2023-01-19T05:17:03.279Z,2.12
2023-01-19T05:19:29.864Z,2.15
2023-01-19T05:21:56.577Z,2.14
2023-01-19T05:24:23.094Z,2.10
2023-01-19T05:26:49.834Z,2.12
2023-01-19T05:29:16.706Z,2.12
2023-01-19T05:31:43.371Z,2.12
2023-01-19T05:34:12.081Z,2.13
2023-01-19T05:36:38.876Z,2.13
2023-01-19T05:39:05.503Z,2.12
2023-01-19T05:41:32.750Z,2.14
2023-01-19T05:44:00.762Z,2.16
2023-01-19T05:46:27.457Z,2.19
2023-01-19T05:48:54.051Z,2.21
2023-01-19T05:51:20.591Z,2.26
2023-01-19T05:53:47.261Z,2.29
2023-01-19T05:56:13.937Z,2.32
2023-01-19T05:58:40.709Z,2.34
2023-01-19T06:01:09.353Z,2.35
2023-01-19T06:03:37.507Z,2.35
2023-01-19T06:06:04.501Z,2.37
2023-01-19T06:08:31.675Z,2.36
2023-01-19T06:10:58.381Z,2.38
2023-01-19T06:13:25.067Z,2.40
2023-01-19T06:16:01.969Z,2.41
2023-01-19T06:18:28.982Z,2.44
2023-01-19T06:20:58.861Z,2.44
2023-01-19T06:23:31.810Z,2.47
2023-01-19T06:25:58.797Z,2.50
2023-01-19T06:28:25.464Z,2.53
2023-01-19T06:30:53.955Z,2.57
2023-01-19T06:33:24.092Z,2.60
2023-01-19T06:35:51.994Z,2.60
2023-01-19T06:38:19.361Z,2.60
2023-01-19T06:40:53.347Z,2.60
2023-01-19T06:43:21.357Z,2.61
2023-01-19T06:45:48.243Z,2.62
2023-01-19T06:48:15.351Z,2.62
2023-01-19T06:50:41.994Z,2.63
2023-01-19T06:53:08.629Z,2.65
2023-01-19T06:55:36.527Z,2.67
2023-01-19T06:58:03.529Z,2.68
2023-01-19T07:00:30.358Z,2.68
2023-01-19T07:02:57.258Z,2.70
2023-01-19T07:05:24.513Z,2.70
2023-01-19T07:07:55.655Z,2.74
2023-01-19T07:10:23.191Z,2.74
2023-01-19T07:12:50.140Z,2.76
2023-01-19T07:15:20.156Z,2.78
2023-01-19T07:17:46.802Z,2.79
2023-01-19T07:20:14.640Z,2.82
2023-01-19T07:22:46.572Z,2.81
2023-01-19T07:25:14.364Z,2.82
2023-01-19T07:27:40.994Z,2.83
2023-01-19T07:30:08.700Z,2.84
2023-01-19T07:32:36.107Z,2.81
2023-01-19T07:35:03.092Z,2.80
2023-01-19T07:37:29.883Z,2.78
2023-01-19T07:39:56.459Z,2.80
2023-01-19T07:42:23.083Z,2.81
2023-01-19T07:44:49.648Z,2.82
2023-01-19T07:47:16.355Z,2.83
2023-01-19T07:49:42.952Z,2.84
2023-01-19T07:52:10.179Z,2.84
2023-01-19T07:54:36.905Z,2.85
2023-01-19T07:57:03.640Z,2.86
2023-01-19T07:59:31.171Z,2.87
2023-01-19T08:01:59.644Z,2.87
2023-01-19T08:04:27.441Z,2.87
2023-01-19T08:06:56.102Z,2.86
2023-01-19T08:09:23.949Z,2.84
2023-01-19T08:11:50.690Z,2.83
2023-01-19T08:14:17.347Z,2.84
2023-01-19T08:16:44.463Z,2.85
2023-01-19T08:19:11.225Z,2.88
2023-01-19T08:21:39.051Z,2.89
2023-01-19T08:24:06.091Z,2.91
2023-01-19T08:26:35.419Z,2.93
2023-01-19T08:29:05.255Z,2.94
2023-01-19T08:31:32.293Z,2.96
2023-01-19T08:33:59.100Z,3.00
2023-01-19T08:36:26.122Z,3.02
2023-01-19T08:38:52.892Z,3.04
2023-01-19T08:41:19.697Z,3.07
2023-01-19T08:43:46.467Z,3.11
2023-01-19T08:46:17.140Z,3.14
2023-01-19T08:48:53.731Z,3.16
2023-01-19T08:51:20.763Z,3.21
2023-01-19T08:53:47.694Z,3.25
2023-01-19T08:56:14.980Z,3.29
2023-01-19T08:58:45.678Z,3.35
2023-01-19T09:01:17.138Z,3.38
2023-01-19T09:03:44.525Z,3.39
2023-01-19T09:06:14.696Z,3.42
2023-01-19T09:08:41.304Z,3.43
2023-01-19T09:11:12.693Z,3.45
2023-01-19T09:13:40.041Z,3.46
2023-01-19T09:16:08.040Z,3.48
2023-01-19T09:18:35.770Z,3.49
2023-01-19T09:21:04.045Z,3.50
2023-01-19T09:23:30.953Z,3.50
2023-01-19T09:26:00.601Z,3.53
2023-01-19T09:28:28.017Z,3.58
2023-01-19T09:30:54.833Z,3.61
2023-01-19T09:33:22.122Z,3.64
2023-01-19T09:35:49.414Z,3.70
2023-01-19T09:38:16.902Z,3.78
2023-01-19T09:40:55.939Z,3.88
2023-01-19T09:43:42.298Z,3.98
2023-01-19T09:46:14.382Z,4.03
2023-01-19T09:48:47.805Z,4.06
2023-01-19T09:51:19.380Z,4.03
2023-01-19T09:54:07.690Z,4.03
2023-01-19T09:56:34.509Z,4.04
2023-01-19T09:59:03.106Z,4.04
2023-01-19T10:01:35.582Z,4.05
2023-01-19T10:04:28.328Z,4.05
2023-01-19T10:07:20.473Z,4.09
2023-01-19T10:09:53.335Z,4.13
2023-01-19T10:12:33.513Z,4.16
2023-01-19T10:15:10.123Z,4.18
2023-01-19T10:17:51.149Z,4.20
2023-01-19T10:20:26.651Z,4.22
2023-01-19T10:22:56.641Z,4.26
2023-01-19T10:25:24.776Z,4.29
2023-01-19T10:27:51.838Z,4.26
2023-01-19T10:30:30.255Z,4.31
2023-01-19T10:32:57.009Z,4.33
2023-01-19T10:35:25.244Z,4.35
2023-01-19T10:37:58.270Z,4.36
2023-01-19T10:40:47.847Z,4.38
2023-01-19T10:43:41.754Z,4.37
2023-01-19T10:46:21.502Z,4.39
2023-01-19T10:48:50.576Z,4.41
2023-01-19T10:51:17.552Z,4.42
2023-01-19T10:53:58.346Z,4.44
2023-01-19T10:56:34.162Z,4.49
2023-01-19T10:59:03.255Z,4.50
2023-01-19T11:01:31.306Z,4.52
2023-01-19T11:04:05.627Z,4.57
2023-01-19T11:06:35.214Z,4.57
2023-01-19T11:09:21.110Z,4.60
2023-01-19T11:11:51.425Z,4.62
2023-01-19T11:14:23.691Z,4.66
2023-01-19T11:16:58.359Z,4.68
2023-01-19T11:19:27.175Z,4.72
2023-01-19T11:22:09.923Z,4.75
2023-01-19T11:24:38.539Z,4.78
2023-01-19T11:27:05.308Z,4.81
2023-01-19T11:29:32.345Z,4.87
2023-01-19T11:32:11.513Z,4.86
2023-01-19T11:34:39.320Z,4.85
2023-01-19T11:37:28.684Z,4.88
2023-01-19T11:40:00.307Z,4.89
2023-01-19T11:42:30.277Z,4.87
2023-01-19T11:45:12.891Z,4.87
2023-01-19T11:47:45.444Z,4.87
2023-01-19T11:50:33.469Z,4.89
2023-01-19T11:53:06.416Z,4.87
2023-01-19T11:55:51.790Z,4.87
2023-01-19T11:58:19.754Z,4.86
2023-01-19T12:01:11.342Z,4.86
2023-01-19T12:04:01.234Z,4.89
2023-01-19T12:06:44.568Z,4.91
2023-01-19T12:09:22.664Z,4.94
2023-01-19T12:11:57.987Z,4.92
2023-01-19T12:14:35.515Z,4.96
2023-01-19T12:17:07.561Z,4.97
2023-01-19T12:20:06.813Z,5.01
2023-01-19T12:22:44.019Z,5.01
2023-01-19T12:25:22.903Z,5.05
2023-01-19T12:27:50.685Z,5.05
2023-01-19T12:30:25.296Z,5.07
2023-01-19T12:32:52.004Z,5.04
2023-01-19T12:35:56.925Z,5.03
2023-01-19T12:38:48.552Z,5.03
2023-01-19T12:41:38.081Z,5.03
2023-01-19T12:44:10.986Z,5.04
2023-01-19T12:46:38.054Z,5.05
2023-01-19T12:49:26.128Z,5.03
2023-01-19T12:52:11.709Z,5.04
2023-01-19T12:54:49.607Z,5.09
2023-01-19T12:57:58.067Z,5.11
2023-01-19T13:00:24.586Z,5.13
2023-01-19T13:02:54.920Z,5.17
2023-01-19T13:05:46.104Z,5.21
2023-01-19T13:08:13.269Z,5.27
2023-01-19T13:11:13.695Z,5.33
2023-01-19T13:13:40.425Z,5.42
2023-01-19T13:16:19.083Z,5.47
2023-01-19T13:18:55.615Z,5.54
2023-01-19T13:21:31.566Z,5.56
2023-01-19T13:24:10.743Z,5.58
2023-01-19T13:26:40.146Z,5.61
2023-01-19T13:29:34.418Z,5.61
2023-01-19T13:32:04.507Z,5.60
2023-01-19T13:34:41.058Z,5.58
2023-01-19T13:37:17.958Z,5.59
2023-01-19T13:39:45.962Z,5.63
2023-01-19T13:42:24.157Z,5.67
2023-01-19T13:44:54.519Z,5.72
2023-01-19T13:47:43.798Z,5.76
2023-01-19T13:50:23.817Z,5.75
2023-01-19T13:52:53.955Z,5.75
2023-01-19T13:55:20.945Z,5.75
2023-01-19T13:57:49.666Z,5.77
2023-01-19T14:00:19.503Z,5.78
2023-01-19T14:03:00.338Z,5.79
2023-01-19T14:05:33.020Z,5.79
2023-01-19T14:08:08.832Z,5.80
2023-01-19T14:10:37.342Z,5.81
2023-01-19T14:13:13.328Z,5.81
2023-01-19T14:15:40.960Z,5.77
2023-01-19T14:18:30.101Z,5.69
2023-01-19T14:21:01.084Z,5.64
2023-01-19T14:23:55.764Z,5.58
2023-01-19T14:26:56.304Z,5.50
2023-01-19T14:29:41.379Z,5.47
2023-01-19T14:32:15.070Z,5.47
2023-01-19T14:34:50.421Z,5.44
2023-01-19T14:37:21.431Z,5.48
2023-01-19T14:40:04.951Z,5.47
2023-01-19T14:42:52.731Z,5.50
2023-01-19T14:45:30.554Z,5.62
2023-01-19T14:48:17.048Z,5.65
2023-01-19T14:50:57.669Z,5.67
2023-01-19T14:53:30.299Z,5.70
2023-01-19T14:56:07.744Z,5.66
2023-01-19T14:58:35.723Z,5.62
2023-01-19T15:01:03.653Z,5.59
2023-01-19T15:03:44.815Z,5.59
2023-01-19T15:06:21.048Z,5.56
2023-01-19T15:08:50.177Z,5.55
2023-01-19T15:11:26.574Z,5.53
2023-01-19T15:13:54.397Z,5.49
2023-01-19T15:16:22.852Z,5.44
2023-01-19T15:18:49.587Z,5.37
2023-01-19T15:21:21.761Z,5.28
2023-01-19T15:23:48.590Z,5.21
2023-01-19T15:26:23.696Z,5.13
2023-01-19T15:28:50.641Z,5.04
2023-01-19T15:31:19.885Z,4.95
2023-01-19T15:33:46.857Z,4.87
2023-01-19T15:36:17.917Z,4.78
2023-01-19T15:38:45.942Z,4.70
2023-01-19T15:41:26.177Z,4.61
2023-01-19T15:43:53.150Z,4.54
2023-01-19T15:46:20.925Z,4.48
2023-01-19T15:48:49.033Z,4.40
2023-01-19T15:51:18.093Z,4.32
2023-01-19T15:53:46.156Z,4.26
2023-01-19T15:56:25.021Z,4.24
2023-01-19T15:58:53.004Z,4.19
2023-01-19T16:01:23.916Z,4.11
2023-01-19T16:03:50.750Z,4.09
2023-01-19T16:06:18.015Z,4.04
2023-01-19T16:08:47.261Z,3.99
2023-01-19T16:11:15.388Z,3.96
2023-01-19T16:13:46.265Z,3.93
2023-01-19T16:16:23.842Z,3.89
2023-01-19T16:18:52.691Z,3.85
2023-01-19T16:21:19.504Z,3.82
2023-01-19T16:23:46.714Z,3.81
2023-01-19T16:26:26.928Z,3.79
2023-01-19T16:29:00.027Z,3.78
2023-01-19T16:31:27.814Z,3.78
2023-01-19T16:33:54.595Z,3.78
2023-01-19T16:36:29.392Z,3.80
2023-01-19T16:39:00.241Z,3.81
2023-01-19T16:41:26.859Z,3.83
2023-01-19T16:43:54.804Z,3.84
2023-01-19T16:46:24.906Z,3.87
2023-01-19T16:48:52.115Z,3.88
2023-01-19T16:51:19.897Z,3.89
2023-01-19T16:53:48.802Z,3.89
2023-01-19T16:56:17.101Z,3.88
2023-01-19T16:58:43.842Z,3.87
2023-01-19T17:01:13.684Z,3.87
2023-01-19T17:03:40.945Z,3.87
2023-01-19T17:06:10.323Z,3.87
2023-01-19T17:08:37.864Z,3.86
2023-01-19T17:11:13.858Z,3.82
2023-01-19T17:13:40.498Z,3.78
2023-01-19T17:16:07.771Z,3.76
2023-01-19T17:18:36.424Z,3.75
2023-01-19T17:21:06.155Z,3.73
2023-01-19T17:23:33.367Z,3.68
2023-01-19T17:26:00.432Z,3.64
2023-01-19T17:28:27.170Z,3.61
2023-01-19T17:30:54.162Z,3.57
2023-01-19T17:33:22.463Z,3.55
2023-01-19T17:35:49.530Z,3.52
2023-01-19T17:38:17.194Z,3.50
2023-01-19T17:40:43.813Z,3.46
2023-01-19T17:43:11.611Z,3.43
2023-01-19T17:45:38.250Z,3.38
2023-01-19T17:48:05.280Z,3.38
2023-01-19T17:50:34.615Z,3.35
2023-01-19T17:53:02.242Z,3.31
2023-01-19T17:55:29.964Z,3.28
2023-01-19T17:57:57.110Z,3.25
2023-01-19T18:00:24.854Z,3.22
2023-01-19T18:02:52.052Z,3.20
2023-01-19T18:05:19.003Z,3.17
2023-01-19T18:07:46.482Z,3.13
2023-01-19T18:10:13.835Z,3.10
2023-01-19T18:12:40.878Z,3.07
2023-01-19T18:15:09.502Z,3.03
2023-01-19T18:17:36.201Z,3.01
2023-01-19T18:20:03.542Z,2.99
2023-01-19T18:22:30.318Z,2.98
2023-01-19T18:24:57.117Z,2.97
2023-01-19T18:27:23.861Z,2.95
2023-01-19T18:29:50.757Z,2.91
2023-01-19T18:32:17.414Z,2.93
2023-01-19T18:34:44.122Z,2.92
2023-01-19T18:37:10.827Z,2.91
2023-01-19T18:39:38.614Z,2.93
2023-01-19T18:42:05.366Z,2.91
2023-01-19T18:44:31.971Z,2.90
2023-01-19T18:46:58.805Z,2.88
2023-01-19T18:49:25.377Z,2.84
2023-01-19T18:51:52.112Z,2.82
2023-01-19T18:54:19.207Z,2.80
2023-01-19T18:56:45.963Z,2.76
2023-01-19T18:59:12.742Z,2.72
2023-01-19T19:01:39.545Z,2.69
2023-01-19T19:04:07.243Z,2.66
2023-01-19T19:06:34.238Z,2.63
2023-01-19T19:09:00.794Z,2.62
2023-01-19T19:11:28.164Z,2.57
2023-01-19T19:14:00.784Z,2.55
2023-01-19T19:16:29.025Z,2.51
2023-01-19T19:18:55.837Z,2.48
2023-01-19T19:21:25.249Z,2.46
2023-01-19T19:23:53.869Z,2.40
2023-01-19T19:26:21.492Z,2.35
2023-01-19T19:28:48.263Z,2.32
2023-01-19T19:31:20.350Z,2.27
2023-01-19T19:33:48.792Z,2.22
2023-01-19T19:36:15.651Z,2.21
2023-01-19T19:38:44.450Z,2.21
2023-01-19T19:41:17.149Z,2.22
2023-01-19T19:43:43.928Z,2.20
2023-01-19T19:46:13.205Z,2.17
2023-01-19T19:48:40.569Z,2.17
2023-01-19T19:51:19.628Z,2.19
2023-01-19T19:53:48.955Z,2.20
2023-01-19T19:56:21.428Z,2.22
2023-01-19T19:58:49.211Z,2.26
2023-01-19T20:01:18.596Z,2.25
2023-01-19T20:03:45.802Z,2.28
2023-01-19T20:06:16.284Z,2.26
2023-01-19T20:08:42.917Z,2.26
2023-01-19T20:11:15.220Z,2.27
2023-01-19T20:13:43.271Z,2.25
2023-01-19T20:16:14.180Z,2.21
2023-01-19T20:18:43.161Z,2.18
2023-01-19T20:21:21.523Z,2.16
2023-01-19T20:23:50.515Z,2.15
2023-01-19T20:26:20.254Z,2.13
2023-01-19T20:28:47.681Z,2.10
2023-01-19T20:31:25.070Z,2.10
2023-01-19T20:33:52.716Z,2.08
2023-01-19T20:36:19.757Z,2.04
2023-01-19T20:38:46.648Z,2.03
2023-01-19T20:41:13.785Z,2.01
2023-01-19T20:43:41.525Z,1.95
2023-01-19T20:46:08.999Z,1.91
2023-01-19T20:48:35.954Z,1.93
2023-01-19T20:51:08.125Z,1.95
2023-01-19T20:53:35.875Z,1.94
2023-01-19T20:56:12.419Z,1.94
2023-01-19T20:58:40.153Z,1.93
2023-01-19T21:01:18.624Z,1.92
2023-01-19T21:03:46.619Z,1.94
2023-01-19T21:06:13.765Z,1.93
2023-01-19T21:08:41.096Z,1.90
2023-01-19T21:11:07.873Z,1.86
2023-01-19T21:13:35.270Z,1.84
2023-01-19T21:16:02.581Z,1.84
2023-01-19T21:18:29.276Z,1.85
2023-01-19T21:20:59.318Z,1.86
2023-01-19T21:23:28.326Z,1.88
2023-01-19T21:25:57.184Z,1.91
2023-01-19T21:28:24.835Z,1.95
2023-01-19T21:30:52.631Z,2.00
2023-01-19T21:33:20.769Z,2.03
2023-01-19T21:35:56.860Z,2.03
2023-01-19T21:38:26.813Z,2.05
2023-01-19T21:40:54.270Z,2.04
2023-01-19T21:43:21.508Z,2.02
2023-01-19T21:45:48.918Z,1.97
2023-01-19T21:48:16.777Z,1.94
2023-01-19T21:50:45.209Z,1.92
2023-01-19T21:53:11.942Z,1.94
2023-01-19T21:55:44.559Z,1.93
2023-01-19T21:58:11.357Z,1.94
2023-01-19T22:00:37.991Z,1.96
2023-01-19T22:03:05.026Z,1.96
2023-01-19T22:05:36.834Z,1.96
2023-01-19T22:08:04.935Z,1.98
2023-01-19T22:10:31.728Z,1.96
2023-01-19T22:12:58.354Z,1.98
2023-01-19T22:15:24.971Z,2.02
2023-01-19T22:17:51.602Z,2.03
2023-01-19T22:20:18.366Z,2.08
2023-01-19T22:22:45.011Z,2.13
2023-01-19T22:25:11.759Z,2.14
2023-01-19T22:27:38.858Z,2.16
2023-01-19T22:30:06.313Z,2.16
2023-01-19T22:32:32.834Z,2.18
2023-01-19T22:34:59.442Z,2.20
2023-01-19T22:37:26.157Z,2.22
2023-01-19T22:39:53.493Z,2.22
2023-01-19T22:42:20.157Z,2.21
2023-01-19T22:44:46.934Z,2.21
2023-01-19T22:47:13.838Z,2.20
2023-01-19T22:49:40.778Z,2.18
2023-01-19T22:52:07.917Z,2.15
2023-01-19T22:54:34.516Z,2.12
2023-01-19T22:57:01.440Z,2.11
2023-01-19T22:59:28.164Z,2.09
2023-01-19T23:01:55.031Z,2.07
2023-01-19T23:04:21.735Z,2.07
2023-01-19T23:06:50.574Z,2.09
2023-01-19T23:09:18.232Z,2.10
2023-01-19T23:11:51.191Z,2.10
2023-01-19T23:14:20.869Z,2.06
2023-01-19T23:16:48.013Z,2.05
2023-01-19T23:19:17.018Z,2.05
2023-01-19T23:21:44.164Z,2.05
2023-01-19T23:24:11.738Z,2.04
2023-01-19T23:26:38.853Z,2.04
2023-01-19T23:29:08.605Z,2.06
2023-01-19T23:31:37.103Z,2.08
2023-01-19T23:34:07.259Z,2.09
2023-01-19T23:36:36.189Z,2.09
2023-01-19T23:39:06.369Z,2.10
2023-01-19T23:41:36.319Z,2.08
2023-01-19T23:44:04.239Z,2.05
2023-01-19T23:46:30.945Z,2.01
2023-01-19T23:48:57.762Z,1.93
2023-01-19T23:51:30.193Z,1.89
2023-01-19T23:53:58.335Z,1.85
2023-01-19T23:56:30.869Z,1.85
2023-01-19T23:59:07.508Z,1.87
